Forside
METAR-TAF:

METAR-TAF

Lufthavne :

Chanute, Kansas, USA

Breddekreds: 37-40-13N, længdekreds: 095-29-03W, højde: 305 m

Aktuelle vejr

Denne rapport blev lavet for 56 minutter siden, kl. 22:52 UTC
Vind 3 kt fra sydsydøst
Temperatur 2°C
Fugtighed 47%
Tryk 1028 hPa
Sigt: 16.1 km
skyfri

METAR: KCNU 142252Z AUTO 15003KT 10SM CLR 02/M08 A3036 RMK AO2 SLP292 T00171083

Tid: 17:48 (23:48 UTC)

Vejrudsigter

Denne rapport blev lavet for 9 minutter siden, kl. 23:39 UTC
Foreløbig gælder fra 15 på 00 UTC til 15 på 24 UTC
Vind 5 kt fra varierende retninger
Sigt: 10 km
skyfri

TAF: KCNU 142339Z 1500/1524 VRB05KT P6SM SKC

Vejrobservationer og prognoser fra mere end 4000 lufthavne (METAR og TAF).

De gule og røde prikker repræsenterer de meteorologiske stationer.

Flyt musen over at se navnet på stationen.

Så klik over at se vejr observationer og prognoser.

At skifte det kort: Klik på de grønne knapper med et sort kors for at zoome ind; på den grønne knap med en bindestreg for at zoome ud; eller på de grønne pile for tilstødende kort.


METAR-TAF: